Date,TemperatureHighF,TemperatureAvgF,TemperatureLowF,DewpointHighF,DewpointAvgF,DewpointLowF,HumidityHigh,HumidityAvg,HumidityLow,PressureMaxIn,PressureMinIn,WindSpeedMaxMPH,WindSpeedAvgMPH,GustSpeedMaxMPH,PrecipitationSumIn
2013-11-1,86.4,78.0,73.9,80.4,76.4,73.4,100,95,81,29.96,29.86,106,2,106,0.57
2013-11-2,87.4,78.7,73.2,81.7,77.4,73.2,100,96,80,29.96,29.86,21,1,21,0.38
2013-11-3,85.8,79.8,75.9,80.8,77.8,75.2,100,94,82,29.96,29.86,20,2,20,0.00
2013-11-4,90.5,81.1,75.9,80.8,78.1,75.7,100,91,72,29.95,29.84,12,0,13,0.00
2013-11-5,90.1,80.7,75.7,82.6,78.0,74.5,100,92,72,29.94,29.84,112,1,112,0.08
2013-11-6,88.9,79.8,75.7,81.5,77.9,75.7,100,94,76,29.94,29.85,113,2,113,0.30
2013-11-7,89.1,79.0,73.9,81.1,77.2,73.9,100,95,75,29.95,29.86,113,2,113,0.25
2013-11-8,88.9,80.7,74.1,82.8,78.2,74.1,100,93,77,29.98,29.88,112,2,112,0.33
2013-11-9,89.4,81.4,75.4,81.5,78.6,75.4,100,92,76,30.02,29.93,14,1,16,0.01
2013-11-10,90.3,81.5,74.7,82.0,78.3,74.7,100,91,74,30.04,29.94,112,3,112,0.05
2013-11-11,90.5,82.1,75.7,82.0,78.9,75.6,100,91,73,30.06,29.97,113,3,113,0.03
2013-11-12,91.0,82.8,76.1,81.3,79.0,76.1,100,89,71,30.04,29.91,21,2,21,0.00
2013-11-13,91.2,82.7,76.1,80.1,77.4,75.6,100,85,65,30.01,29.91,16,1,16,0.00
2013-11-14,89.2,81.9,75.4,79.7,77.4,74.5,99,87,71,30.05,29.93,16,2,17,0.00
2013-11-15,87.4,78.8,74.7,81.1,77.3,74.7,100,95,79,30.04,29.90,113,10,113,1.43
2013-11-16,88.2,80.1,74.5,81.1,76.9,74.5,100,90,74,29.99,29.89,113,2,113,0.07
2013-11-17,87.3,80.5,75.9,77.4,74.7,72.1,100,83,62,29.94,29.83,112,2,112,0.15
2013-11-18,85.1,78.5,74.1,76.6,74.2,71.6,100,87,70,29.88,29.78,113,4,113,0.11
2013-11-19,84.4,77.8,71.8,76.1,73.5,71.6,100,87,71,29.94,29.81,113,4,113,0.09
2013-11-20,87.6,79.4,71.8,76.6,74.1,71.1,99,85,66,30.03,29.91,16,2,17,0.00
2013-11-21,83.7,77.7,73.8,79.5,76.5,73.8,100,96,86,30.06,29.97,113,11,113,2.17
2013-11-22,84.6,77.8,73.6,77.5,75.3,73.2,100,92,75,30.03,29.92,16,1,16,0.31
2013-11-23,86.5,79.3,72.5,76.6,74.6,72.5,100,86,70,29.98,29.88,17,1,17,0.00
2013-11-24,87.4,78.8,71.2,79.0,75.6,71.1,100,90,75,29.99,29.89,13,1,13,0.00
2013-11-25,87.1,79.3,73.9,79.7,76.3,73.9,100,91,74,30.04,29.96,113,4,113,0.12
2013-11-26,86.5,79.6,73.8,78.1,75.9,73.8,100,89,71,30.05,29.96,113,4,113,0.10
2013-11-27,87.3,77.7,72.7,78.1,74.6,72.1,100,91,66,30.00,29.90,113,8,113,0.81
2013-11-28,85.6,78.0,73.6,79.9,75.9,73.6,100,94,76,30.05,29.95,100,2,112,0.14
2013-11-29,81.1,77.4,75.0,77.2,74.7,70.7,100,92,79,30.07,29.96,113,6,113,0.58
2013-11-30,77.2,74.0,72.3,77.2,74.0,72.3,100,100,100,30.04,29.92,19,1,19,4.02